Saturday, November 22, 2014, 9:01 AM EST
Back to Local

KHWV, Shirley Brookhaven Airport

Location: Shirley, NY, United States Lat: 40.817
Local Time: 9:01 AM EST (14:01 GMT) Lon: -72.867
Time Zone: US/Eastern Elev: 82 ft

Show me the last for .
Show Coded

Time T Td Feel RH Dir Speed Gust Alt SLP Vis Weather Sky Remarks
2014-11-22 07:56 29 17 21 60 270° 8 - 30.49 30.49 10 CLR None
2014-11-22 06:56 20 12 - 70 - Calm - 30.50 30.50 10 CLR 6-hr Min Temp (7am): 19.9°F
6-hr Max Temp (7am): 24.1°F
2014-11-22 05:56 20 12 - 70 - Calm - 30.48 30.48 10 CLR None
2014-11-22 04:56 23 13 18 64 250° 3 - 30.49 30.49 10 CLR None
2014-11-22 03:56 21 12 15 67 260° 5 - 30.49 30.49 10 CLR None
2014-11-22 01:56 22 12 - 65 - Calm - 30.50 30.50 10 CLR None
2014-11-22 00:56 22 13 - 67 - Calm - 30.51 30.51 10 CLR 6-hr Min Temp (1am): 21.0°F
6-hr Max Temp (1am): 32.0°F
2014-11-21 22:56 27 11 - 50 - Calm - 30.49 30.50 10 CLR None
2014-11-21 21:56 29 12 21 48 320° 8 - 30.49 30.50 10 CLR None
2014-11-21 19:56 31 11 23 42 320° 9 - 30.46 30.46 10 CLR None
2014-11-21 18:56 31 11 25 42 300° 6 - 30.45 30.45 10 CLR 6-hr Min Temp (7pm): 30.9°F
6-hr Max Temp (7pm): 37.0°F
2014-11-21 17:56 32 11 26 40 300° 7 - 30.41 30.42 10 CLR None
2014-11-21 16:56 33 10 24 37 310° 12 - 30.38 30.38 10 CLR None
2014-11-21 15:56 35 11 26 36 310° 14 - 30.34 30.34 10 BKN060 None
2014-11-21 14:56 36 12 24 36 320° 14 23 30.31 30.31 10 OVC060 Peak wind: 29 mph (26 kts) from 300° at 11 min
2014-11-21 13:56 37 12 25 35 320° 20 29 30.28 30.28 10 SCT055 Peak wind: 32 mph (28 kts) from 300° at 21 min
2014-11-21 12:56 36 12 23 36 320° 21 30 30.25 30.25 10 FEW050 Peak wind: 34 mph (30 kts) from 300° at 18 min
6-hr Min Temp (1pm): 28.0°F
6-hr Max Temp (1pm): 36.0°F
2014-11-21 11:56 34 11 21 37 300° 18 26 30.24 30.24 10 CLR Peak wind: 29 mph (26 kts) from 300° at 39 min
2014-11-21 10:56 33 12 20 41 300° 17 26 30.25 30.25 10 CLR Peak wind: 29 mph (26 kts) from 330° at 00 min
2014-11-21 09:56 32 12 18 42 310° 15 29 30.24 30.24 10 CLR None

Support USWX by starting your Amazon purchase here.